createdAt,value
2019-01-29T00:00:48.616Z,4.30
2019-01-29T00:03:16.095Z,4.13
2019-01-29T00:05:43.785Z,4.00
2019-01-29T00:08:11.332Z,4.20
2019-01-29T00:10:39.011Z,4.13
2019-01-29T00:13:06.566Z,4.57
2019-01-29T00:15:34.704Z,4.83
2019-01-29T00:18:02.251Z,4.37
2019-01-29T00:20:29.803Z,5.00
2019-01-29T00:22:57.467Z,5.20
2019-01-29T00:25:25.041Z,5.30
2019-01-29T00:27:52.845Z,4.80
2019-01-29T00:30:20.471Z,4.97
2019-01-29T00:32:49.984Z,5.67
2019-01-29T00:35:17.820Z,4.87
2019-01-29T00:37:45.351Z,5.37
2019-01-29T00:40:13.292Z,5.63
2019-01-29T00:42:41.146Z,5.07
2019-01-29T00:45:08.733Z,5.50
2019-01-29T00:47:36.688Z,5.37
2019-01-29T00:50:05.897Z,5.00
2019-01-29T00:52:41.618Z,5.13
2019-01-29T00:55:03.301Z,5.33
2019-01-29T00:57:31.249Z,5.53
2019-01-29T00:59:59.148Z,4.70
2019-01-29T01:02:26.959Z,5.80
2019-01-29T01:04:55.406Z,5.43
2019-01-29T01:07:23.243Z,6.50
2019-01-29T01:09:57.023Z,5.60
2019-01-29T01:12:22.019Z,5.90
2019-01-29T01:14:49.643Z,5.30
2019-01-29T01:17:17.219Z,5.60
2019-01-29T01:19:44.680Z,4.57
2019-01-29T01:22:12.588Z,4.60
2019-01-29T01:24:40.488Z,4.83
2019-01-29T01:27:08.083Z,5.43
2019-01-29T01:29:35.918Z,5.37
2019-01-29T01:32:03.796Z,4.77
2019-01-29T01:34:31.341Z,5.57
2019-01-29T01:36:58.944Z,5.50
2019-01-29T01:39:27.051Z,5.07
2019-01-29T01:41:54.556Z,6.37
2019-01-29T01:44:24.952Z,5.60
2019-01-29T01:46:52.784Z,5.70
2019-01-29T01:49:20.372Z,6.63
2019-01-29T01:51:50.405Z,5.53
2019-01-29T01:54:18.083Z,5.53
2019-01-29T01:56:45.652Z,5.63
2019-01-29T01:59:13.468Z,5.73
2019-01-29T02:01:40.980Z,5.60
2019-01-29T02:04:08.923Z,5.23
2019-01-29T02:06:37.788Z,5.87
2019-01-29T02:09:07.833Z,5.27
2019-01-29T02:11:36.529Z,5.60
2019-01-29T02:14:04.752Z,5.40
2019-01-29T02:16:35.064Z,5.10
2019-01-29T02:19:02.916Z,6.00
2019-01-29T02:21:30.512Z,5.83
2019-01-29T02:23:58.573Z,6.10
2019-01-29T02:26:26.126Z,6.53
2019-01-29T02:28:54.359Z,5.73
2019-01-29T02:31:21.974Z,5.07
2019-01-29T02:33:50.432Z,5.17
2019-01-29T02:36:18.778Z,5.97
2019-01-29T02:38:46.439Z,5.80
2019-01-29T02:41:14.884Z,5.20
2019-01-29T02:43:42.597Z,5.90
2019-01-29T02:46:10.694Z,5.13
2019-01-29T02:48:40.455Z,5.70
2019-01-29T02:51:08.046Z,5.40
2019-01-29T02:53:35.668Z,5.10
2019-01-29T02:56:03.336Z,4.93
2019-01-29T02:58:31.435Z,6.20
2019-01-29T03:00:59.629Z,5.53
2019-01-29T03:03:27.533Z,5.67
2019-01-29T03:05:55.126Z,5.70
2019-01-29T03:08:24.714Z,5.83
2019-01-29T03:10:52.260Z,5.23
2019-01-29T03:13:20.184Z,5.00
2019-01-29T03:15:48.020Z,5.67
2019-01-29T03:18:15.918Z,5.43
2019-01-29T03:20:44.350Z,5.70
2019-01-29T03:23:13.809Z,5.17
2019-01-29T03:25:41.477Z,5.60
2019-01-29T03:28:09.136Z,5.47
2019-01-29T03:30:36.755Z,4.63
2019-01-29T03:33:04.295Z,4.90
2019-01-29T03:35:36.815Z,5.30
2019-01-29T03:38:04.343Z,4.67
2019-01-29T03:40:32.656Z,5.23
2019-01-29T03:43:00.624Z,4.37
2019-01-29T03:45:28.519Z,4.33
2019-01-29T03:47:58.696Z,4.67
2019-01-29T03:50:26.381Z,4.03
2019-01-29T03:52:55.072Z,2.93
2019-01-29T03:55:23.207Z,4.37
2019-01-29T03:57:50.788Z,4.83
2019-01-29T04:00:23.430Z,5.13
2019-01-29T04:02:51.782Z,4.40
2019-01-29T04:05:19.980Z,4.80
2019-01-29T04:07:47.506Z,4.50
2019-01-29T04:10:16.065Z,3.93
2019-01-29T04:12:43.974Z,4.53
2019-01-29T04:15:14.022Z,4.43
2019-01-29T04:17:41.896Z,4.07
2019-01-29T04:20:14.462Z,4.70
2019-01-29T04:22:41.973Z,4.17
2019-01-29T04:25:09.913Z,4.20
2019-01-29T04:27:37.474Z,4.00
2019-01-29T04:30:05.920Z,3.97
2019-01-29T04:32:33.809Z,3.93
2019-01-29T04:35:01.633Z,4.20
2019-01-29T04:37:30.701Z,3.20
2019-01-29T04:39:58.152Z,3.97
2019-01-29T04:42:26.019Z,4.03
2019-01-29T04:44:53.483Z,3.40
2019-01-29T04:47:21.245Z,4.20
2019-01-29T04:49:49.115Z,4.07
2019-01-29T04:52:16.875Z,3.67
2019-01-29T04:54:44.365Z,3.87
2019-01-29T04:57:12.116Z,3.83
2019-01-29T04:59:39.991Z,3.70
2019-01-29T05:02:08.536Z,3.57
2019-01-29T05:04:36.381Z,3.37
2019-01-29T05:07:03.896Z,3.00
2019-01-29T05:09:31.758Z,3.47
2019-01-29T05:11:59.681Z,3.30
2019-01-29T05:14:28.235Z,3.10
2019-01-29T05:16:56.018Z,3.30
2019-01-29T05:19:23.951Z,3.00
2019-01-29T05:21:51.419Z,3.20
2019-01-29T05:24:19.754Z,2.37
2019-01-29T05:26:47.188Z,2.47
2019-01-29T05:29:14.752Z,3.20
2019-01-29T05:31:42.276Z,2.67
2019-01-29T05:34:09.761Z,3.07
2019-01-29T05:36:37.558Z,3.17
2019-01-29T05:39:07.950Z,3.73
2019-01-29T05:41:36.189Z,3.50
2019-01-29T05:44:04.224Z,3.33
2019-01-29T05:46:32.057Z,3.93
2019-01-29T05:48:59.812Z,4.70
2019-01-29T05:51:27.286Z,3.40
2019-01-29T05:54:02.266Z,2.77
2019-01-29T05:56:30.110Z,3.20
2019-01-29T05:58:57.551Z,3.27
2019-01-29T06:01:25.035Z,3.47
2019-01-29T06:03:53.225Z,3.30
2019-01-29T06:06:20.797Z,3.73
2019-01-29T06:08:48.306Z,3.50
2019-01-29T06:11:17.164Z,3.50
2019-01-29T06:13:45.768Z,4.50
2019-01-29T06:16:13.953Z,4.30
2019-01-29T06:18:41.711Z,4.37
2019-01-29T06:21:09.187Z,4.27
2019-01-29T06:23:37.024Z,4.70
2019-01-29T06:26:04.828Z,4.90
2019-01-29T06:28:32.961Z,4.67
2019-01-29T06:31:00.400Z,4.43
2019-01-29T06:33:27.969Z,4.60
2019-01-29T06:35:55.624Z,4.77
2019-01-29T06:38:23.247Z,4.33
2019-01-29T06:40:50.743Z,4.77
2019-01-29T06:43:18.349Z,4.73
2019-01-29T06:45:45.885Z,4.90
2019-01-29T06:48:13.345Z,4.80
2019-01-29T06:50:40.934Z,4.97
2019-01-29T06:53:09.914Z,4.90
2019-01-29T06:55:37.715Z,4.17
2019-01-29T06:58:05.623Z,3.83
2019-01-29T07:00:34.073Z,4.63
2019-01-29T07:03:02.188Z,4.23
2019-01-29T07:05:30.877Z,4.70
2019-01-29T07:07:58.783Z,4.60
2019-01-29T07:10:28.000Z,4.50
2019-01-29T07:12:56.352Z,4.87
2019-01-29T07:15:43.435Z,4.83
2019-01-29T07:18:32.133Z,4.97
2019-01-29T07:21:00.236Z,4.73
2019-01-29T07:23:28.334Z,5.20
2019-01-29T07:25:56.219Z,4.97
2019-01-29T07:28:24.669Z,5.00
2019-01-29T07:30:52.655Z,3.57
2019-01-29T07:33:23.007Z,4.77
2019-01-29T07:35:51.365Z,4.90
2019-01-29T07:38:19.371Z,5.40
2019-01-29T07:40:51.371Z,5.30
2019-01-29T07:43:19.606Z,4.50
2019-01-29T07:45:48.256Z,4.53
2019-01-29T07:48:16.242Z,4.13
2019-01-29T07:50:43.779Z,5.27
2019-01-29T07:53:11.624Z,5.10
2019-01-29T07:55:39.160Z,4.87
2019-01-29T07:58:06.916Z,4.80
2019-01-29T08:00:34.682Z,4.03
2019-01-29T08:03:02.666Z,4.60
2019-01-29T08:05:30.434Z,4.73
2019-01-29T08:07:58.018Z,4.80
2019-01-29T08:10:25.540Z,5.17
2019-01-29T08:12:53.334Z,4.53
2019-01-29T08:15:21.306Z,5.30
2019-01-29T08:17:48.939Z,4.30
2019-01-29T08:20:16.895Z,4.60
2019-01-29T08:22:44.677Z,4.83
2019-01-29T08:25:12.737Z,4.73
2019-01-29T08:27:40.319Z,4.87
2019-01-29T08:30:08.252Z,5.40
2019-01-29T08:32:36.088Z,5.23
2019-01-29T08:35:04.531Z,4.93
2019-01-29T08:37:32.650Z,4.93
2019-01-29T08:40:00.396Z,5.67
2019-01-29T08:42:27.880Z,5.60
2019-01-29T08:44:55.675Z,6.17
2019-01-29T08:47:23.436Z,6.37
2019-01-29T08:49:51.276Z,6.17
2019-01-29T08:52:18.758Z,6.10
2019-01-29T08:54:46.229Z,6.23
2019-01-29T08:57:13.694Z,6.70
2019-01-29T08:59:41.535Z,6.17
2019-01-29T09:02:09.757Z,5.83
2019-01-29T09:04:37.887Z,5.77
2019-01-29T09:07:05.383Z,6.10
2019-01-29T09:09:32.863Z,5.03
2019-01-29T09:12:00.343Z,5.70
2019-01-29T09:14:27.856Z,5.30
2019-01-29T09:16:55.947Z,5.27
2019-01-29T09:19:23.688Z,6.00
2019-01-29T09:21:51.708Z,6.27
2019-01-29T09:24:19.569Z,5.20
2019-01-29T09:26:47.339Z,5.23
2019-01-29T09:29:17.787Z,4.90
2019-01-29T09:31:44.135Z,6.43
2019-01-29T09:34:12.374Z,5.37
2019-01-29T09:36:40.276Z,6.50
2019-01-29T09:39:09.590Z,6.93
2019-01-29T09:41:37.181Z,6.30
2019-01-29T09:44:05.078Z,6.17
2019-01-29T09:46:32.856Z,5.90
2019-01-29T09:49:00.445Z,5.27
2019-01-29T09:51:27.936Z,6.30
2019-01-29T09:53:56.067Z,5.07
2019-01-29T09:56:23.563Z,5.83
2019-01-29T09:58:51.095Z,7.23
2019-01-29T10:01:18.926Z,6.00
2019-01-29T10:03:46.420Z,6.43
2019-01-29T10:06:14.324Z,5.63
2019-01-29T10:08:41.921Z,4.83
2019-01-29T10:11:09.457Z,5.10
2019-01-29T10:13:37.067Z,5.33
2019-01-29T10:16:04.797Z,4.67
2019-01-29T10:18:32.821Z,5.03
2019-01-29T10:21:01.021Z,4.87
2019-01-29T10:23:29.039Z,5.13
2019-01-29T10:25:56.579Z,5.43
2019-01-29T10:28:24.079Z,4.67
2019-01-29T10:30:52.240Z,5.53
2019-01-29T10:33:20.118Z,4.73
2019-01-29T10:35:47.867Z,4.87
2019-01-29T10:38:15.374Z,5.50
2019-01-29T10:40:43.522Z,4.43
2019-01-29T10:43:11.012Z,4.97
2019-01-29T10:45:38.852Z,4.87
2019-01-29T10:48:06.372Z,4.80
2019-01-29T10:50:33.993Z,4.43
2019-01-29T10:53:01.449Z,4.83
2019-01-29T10:55:29.409Z,5.07
2019-01-29T10:58:16.305Z,4.63
2019-01-29T11:00:45.218Z,5.23
2019-01-29T11:03:12.778Z,4.80
2019-01-29T11:05:40.359Z,5.50
2019-01-29T11:08:08.652Z,5.20
2019-01-29T11:10:36.701Z,5.63
2019-01-29T11:13:04.847Z,4.93
2019-01-29T11:15:38.051Z,5.23
2019-01-29T11:18:08.865Z,4.80
2019-01-29T11:20:37.024Z,5.40
2019-01-29T11:23:04.595Z,4.87
2019-01-29T11:25:32.084Z,5.40
2019-01-29T11:27:59.680Z,5.10
2019-01-29T11:30:28.074Z,5.40
2019-01-29T11:32:56.028Z,5.13
2019-01-29T11:35:24.173Z,5.00
2019-01-29T11:37:52.016Z,6.13
2019-01-29T11:40:21.550Z,5.57
2019-01-29T11:42:51.041Z,6.57
2019-01-29T11:45:27.190Z,5.87
2019-01-29T11:47:55.018Z,6.20
2019-01-29T11:50:22.799Z,7.27
2019-01-29T11:52:50.577Z,6.00
2019-01-29T11:55:18.462Z,6.37
2019-01-29T11:57:46.953Z,6.80
2019-01-29T12:00:20.580Z,7.13
2019-01-29T12:02:48.388Z,6.70
2019-01-29T12:05:16.194Z,6.23
2019-01-29T12:07:44.019Z,5.80
2019-01-29T12:10:11.855Z,6.47
2019-01-29T12:12:39.388Z,5.90
2019-01-29T12:15:08.541Z,7.13
2019-01-29T12:17:35.971Z,6.57
2019-01-29T12:20:04.376Z,7.27
2019-01-29T12:22:33.104Z,7.20
2019-01-29T12:25:00.974Z,6.33
2019-01-29T12:27:28.487Z,6.63
2019-01-29T12:29:56.035Z,5.50
2019-01-29T12:32:23.518Z,6.23
2019-01-29T12:34:51.338Z,6.30
2019-01-29T12:37:18.840Z,5.83
2019-01-29T12:39:46.479Z,5.57
2019-01-29T12:42:14.015Z,6.47
2019-01-29T12:44:42.237Z,5.83
2019-01-29T12:47:10.005Z,6.57
2019-01-29T12:49:38.865Z,6.27
2019-01-29T12:52:16.980Z,6.50
2019-01-29T12:54:44.812Z,5.60
2019-01-29T12:57:12.592Z,6.03
2019-01-29T12:59:40.743Z,5.90
2019-01-29T13:02:08.781Z,6.93
2019-01-29T13:04:36.644Z,5.60
2019-01-29T13:07:04.507Z,5.40
2019-01-29T13:09:32.387Z,7.27
2019-01-29T13:11:59.891Z,6.57
2019-01-29T13:14:27.775Z,6.37
2019-01-29T13:16:55.227Z,5.33
2019-01-29T13:19:23.102Z,5.97
2019-01-29T13:21:51.254Z,6.33
2019-01-29T13:24:19.432Z,6.40
2019-01-29T13:26:47.038Z,6.10
2019-01-29T13:29:15.102Z,6.00
2019-01-29T13:31:42.648Z,5.70
2019-01-29T13:34:11.060Z,6.00
2019-01-29T13:36:38.710Z,5.47
2019-01-29T13:39:07.902Z,5.67
2019-01-29T13:41:35.846Z,5.87
2019-01-29T13:44:04.030Z,6.40
2019-01-29T13:46:31.525Z,5.60
2019-01-29T13:48:59.359Z,5.40
2019-01-29T13:51:27.542Z,5.77
2019-01-29T13:53:55.401Z,5.53
2019-01-29T13:56:23.207Z,5.67
2019-01-29T13:58:50.692Z,4.67
2019-01-29T14:01:18.502Z,5.27
2019-01-29T14:03:49.106Z,4.90
2019-01-29T14:06:16.911Z,5.10
2019-01-29T14:08:44.745Z,5.77
2019-01-29T14:11:12.286Z,6.00
2019-01-29T14:13:40.427Z,5.13
2019-01-29T14:16:11.340Z,5.10
2019-01-29T14:18:38.815Z,5.20
2019-01-29T14:21:06.718Z,5.10
2019-01-29T14:23:34.814Z,4.83
2019-01-29T14:26:02.341Z,5.03
2019-01-29T14:28:30.199Z,4.80
2019-01-29T14:30:58.392Z,4.60
2019-01-29T14:33:26.324Z,5.10
2019-01-29T14:35:54.473Z,5.73
2019-01-29T14:39:10.099Z,5.77
2019-01-29T14:41:37.975Z,5.70
2019-01-29T14:44:29.766Z,6.10
2019-01-29T14:46:57.254Z,5.70
2019-01-29T14:49:24.733Z,5.27
2019-01-29T14:51:52.324Z,5.87
2019-01-29T14:54:20.725Z,5.03
2019-01-29T14:56:56.382Z,4.77
2019-01-29T14:59:17.889Z,5.17
2019-01-29T15:01:45.903Z,4.70
2019-01-29T15:04:13.925Z,5.07
2019-01-29T15:06:41.352Z,4.43
2019-01-29T15:09:10.656Z,4.67
2019-01-29T15:11:38.844Z,5.27
2019-01-29T15:14:06.704Z,6.13
2019-01-29T15:16:53.737Z,5.47
2019-01-29T15:19:23.854Z,5.80
2019-01-29T15:21:51.875Z,5.67
2019-01-29T15:24:20.895Z,5.87
2019-01-29T15:26:48.351Z,6.10
2019-01-29T15:29:16.142Z,6.13
2019-01-29T15:31:44.062Z,5.57
2019-01-29T15:34:11.860Z,5.23
2019-01-29T15:36:39.813Z,5.67
2019-01-29T15:39:08.670Z,5.73
2019-01-29T15:41:36.675Z,5.70
2019-01-29T15:44:04.540Z,5.37
2019-01-29T15:46:32.362Z,6.60
2019-01-29T15:49:00.571Z,5.83
2019-01-29T15:51:28.042Z,5.97
2019-01-29T15:53:55.575Z,5.97
2019-01-29T15:56:23.105Z,6.57
2019-01-29T15:58:50.734Z,5.90
2019-01-29T16:01:18.505Z,6.23
2019-01-29T16:03:45.962Z,5.93
2019-01-29T16:06:13.516Z,6.70
2019-01-29T16:08:41.517Z,7.37
2019-01-29T16:11:09.372Z,6.73
2019-01-29T16:13:37.310Z,5.97
2019-01-29T16:16:05.556Z,6.90
2019-01-29T16:18:34.589Z,7.47
2019-01-29T16:21:09.316Z,6.80
2019-01-29T16:23:36.900Z,6.87
2019-01-29T16:26:04.455Z,6.93
2019-01-29T16:28:32.532Z,7.00
2019-01-29T16:31:02.584Z,7.13
2019-01-29T16:33:30.209Z,7.53
2019-01-29T16:35:58.240Z,7.23
2019-01-29T16:38:25.772Z,9.67
2019-01-29T16:41:00.412Z,8.13
2019-01-29T16:43:22.891Z,8.27
2019-01-29T16:45:50.318Z,7.97
2019-01-29T16:48:24.069Z,7.73
2019-01-29T16:50:51.574Z,8.87
2019-01-29T16:53:20.224Z,8.10
2019-01-29T16:55:48.044Z,8.03
2019-01-29T16:58:16.413Z,9.37
2019-01-29T17:01:12.551Z,8.60
2019-01-29T17:03:36.059Z,10.17
2019-01-29T17:06:04.062Z,10.30
2019-01-29T17:08:31.467Z,8.97
2019-01-29T17:10:59.444Z,8.80
2019-01-29T17:13:28.031Z,8.67
2019-01-29T17:15:55.794Z,10.47
2019-01-29T17:18:23.760Z,9.10
2019-01-29T17:20:51.306Z,9.80
2019-01-29T17:23:19.183Z,11.00
2019-01-29T17:25:49.468Z,11.07
2019-01-29T17:28:19.019Z,11.50
2019-01-29T17:30:47.455Z,10.97
2019-01-29T17:33:17.692Z,10.77
2019-01-29T17:35:47.914Z,10.07
2019-01-29T17:38:17.816Z,10.73
2019-01-29T17:40:48.914Z,11.40
2019-01-29T17:43:20.657Z,12.30
2019-01-29T17:45:54.406Z,11.23
2019-01-29T17:48:22.778Z,10.30
2019-01-29T17:50:50.401Z,11.50
2019-01-29T17:53:17.941Z,11.53
2019-01-29T17:55:45.597Z,11.37
2019-01-29T17:58:13.737Z,13.20
2019-01-29T18:00:44.288Z,13.07
2019-01-29T18:03:12.565Z,11.80
2019-01-29T18:05:40.491Z,13.87
2019-01-29T18:08:08.277Z,12.67
2019-01-29T18:10:35.914Z,12.93
2019-01-29T18:13:03.667Z,13.10
2019-01-29T18:15:31.378Z,13.00
2019-01-29T18:17:59.521Z,12.63
2019-01-29T18:20:46.629Z,12.10
2019-01-29T18:23:14.140Z,12.73
2019-01-29T18:25:41.762Z,14.23
2019-01-29T18:28:09.642Z,13.07
2019-01-29T18:30:37.495Z,13.67
2019-01-29T18:33:06.226Z,15.47
2019-01-29T18:35:42.851Z,14.00
2019-01-29T18:38:10.936Z,14.53
2019-01-29T18:40:41.716Z,13.63
2019-01-29T18:43:09.437Z,15.70
2019-01-29T18:45:37.184Z,13.83
2019-01-29T18:48:07.158Z,13.80
2019-01-29T18:50:35.266Z,14.47
2019-01-29T18:53:03.618Z,13.47
2019-01-29T18:55:33.264Z,13.63
2019-01-29T18:58:11.686Z,13.73
2019-01-29T19:00:33.311Z,15.07
2019-01-29T19:03:05.395Z,15.10
2019-01-29T19:05:35.906Z,15.40
2019-01-29T19:08:03.714Z,16.47
2019-01-29T19:10:31.550Z,16.00
2019-01-29T19:12:59.440Z,16.97
2019-01-29T19:15:26.962Z,15.87
2019-01-29T19:17:54.556Z,16.60
2019-01-29T19:20:23.209Z,16.83
2019-01-29T19:22:51.151Z,14.77
2019-01-29T19:25:18.828Z,16.33
2019-01-29T19:27:47.091Z,16.40
2019-01-29T19:30:17.458Z,17.20
2019-01-29T19:32:45.045Z,17.33
2019-01-29T19:35:19.294Z,15.60
2019-01-29T19:37:46.902Z,16.17
2019-01-29T19:40:14.661Z,18.13
2019-01-29T19:42:42.320Z,16.90
2019-01-29T19:45:15.179Z,15.43
2019-01-29T19:47:42.801Z,15.73
2019-01-29T19:50:14.347Z,17.37
2019-01-29T19:52:44.688Z,16.33
2019-01-29T19:55:12.300Z,17.30
2019-01-29T19:57:40.382Z,15.83
2019-01-29T20:00:14.672Z,17.47
2019-01-29T20:02:42.812Z,19.37
2019-01-29T20:05:10.532Z,18.90
2019-01-29T20:07:38.112Z,17.30
2019-01-29T20:10:09.903Z,16.60
2019-01-29T20:12:37.489Z,16.17
2019-01-29T20:15:06.765Z,16.90
2019-01-29T20:17:34.323Z,16.03
2019-01-29T20:20:02.162Z,16.77
2019-01-29T20:22:29.741Z,18.53
2019-01-29T20:25:02.698Z,16.27
2019-01-29T20:27:30.711Z,17.60
2019-01-29T20:29:59.406Z,16.73
2019-01-29T20:32:28.482Z,17.50
2019-01-29T20:34:55.995Z,17.27
2019-01-29T20:37:23.620Z,17.97
2019-01-29T20:39:51.888Z,17.30
2019-01-29T20:42:19.462Z,19.57
2019-01-29T20:44:47.365Z,17.63
2019-01-29T20:47:14.875Z,19.07
2019-01-29T20:49:42.942Z,19.07
2019-01-29T20:52:12.477Z,19.30
2019-01-29T20:54:46.327Z,19.37
2019-01-29T20:57:14.156Z,17.77
2019-01-29T20:59:41.694Z,18.40
2019-01-29T21:02:09.296Z,20.33
2019-01-29T21:04:36.959Z,17.70
2019-01-29T21:07:04.740Z,19.40
2019-01-29T21:09:33.375Z,18.30
2019-01-29T21:12:01.430Z,18.10
2019-01-29T21:14:28.999Z,17.87
2019-01-29T21:16:56.570Z,15.23
2019-01-29T21:19:24.420Z,15.13
2019-01-29T21:21:52.355Z,15.67
2019-01-29T21:24:19.927Z,14.27
2019-01-29T21:26:47.786Z,12.57
2019-01-29T21:29:15.953Z,13.40
2019-01-29T21:31:43.713Z,13.17
2019-01-29T21:34:11.646Z,14.50
2019-01-29T21:36:39.087Z,12.50
2019-01-29T21:39:08.539Z,12.90
2019-01-29T21:41:35.964Z,12.17
2019-01-29T21:44:04.206Z,11.90
2019-01-29T21:46:32.120Z,11.07
2019-01-29T21:48:59.881Z,10.23
2019-01-29T21:51:27.443Z,11.67
2019-01-29T21:53:55.224Z,10.70
2019-01-29T21:56:26.867Z,11.27
2019-01-29T21:58:54.319Z,10.80
2019-01-29T22:01:22.069Z,11.07
2019-01-29T22:03:49.517Z,10.47
2019-01-29T22:06:16.997Z,11.00
2019-01-29T22:08:44.787Z,10.93
2019-01-29T22:11:12.270Z,10.83
2019-01-29T22:13:40.416Z,11.40
2019-01-29T22:16:07.949Z,10.83
2019-01-29T22:18:35.807Z,11.67
2019-01-29T22:21:03.667Z,10.73
2019-01-29T22:23:31.784Z,11.13
2019-01-29T22:25:59.640Z,11.00
2019-01-29T22:28:27.117Z,11.60
2019-01-29T22:30:54.707Z,11.63
2019-01-29T22:33:22.271Z,11.77
2019-01-29T22:35:50.118Z,11.43
2019-01-29T22:38:18.236Z,10.83
2019-01-29T22:40:45.904Z,11.37
2019-01-29T22:43:13.713Z,11.40
2019-01-29T22:45:41.593Z,11.70
2019-01-29T22:48:09.550Z,11.67
2019-01-29T22:50:39.086Z,11.27
2019-01-29T22:53:07.040Z,11.23
2019-01-29T22:55:34.598Z,11.60
2019-01-29T22:58:03.857Z,12.13
2019-01-29T23:01:14.103Z,11.23
2019-01-29T23:03:44.396Z,11.63
2019-01-29T23:06:37.050Z,11.97
2019-01-29T23:09:09.018Z,12.97
2019-01-29T23:11:36.814Z,11.97
2019-01-29T23:14:05.758Z,11.67
2019-01-29T23:16:33.272Z,12.53
2019-01-29T23:19:00.801Z,12.43
2019-01-29T23:21:28.379Z,12.03
2019-01-29T23:23:56.112Z,11.97
2019-01-29T23:26:23.829Z,12.90
2019-01-29T23:28:51.662Z,12.43
2019-01-29T23:31:19.146Z,13.73
2019-01-29T23:33:47.240Z,12.10
2019-01-29T23:36:15.204Z,13.67
2019-01-29T23:38:42.799Z,11.87
2019-01-29T23:41:30.093Z,12.70
2019-01-29T23:43:57.917Z,12.60
2019-01-29T23:46:27.132Z,12.87
2019-01-29T23:48:55.058Z,13.10
2019-01-29T23:51:22.512Z,12.43
2019-01-29T23:53:50.102Z,12.83
2019-01-29T23:56:17.624Z,13.33
2019-01-29T23:58:45.784Z,13.70
